Time;durP1;ratioP1;P1;durP2;ratioP2;P2;SDS_P1;SDS_P2;PMS_P1;PMS_P2;Temp;Humidity;BMP_temperature;BMP_pressure;BME280_temperature;BME280_humidity;BME280_pressure;Samples;Min_cycle;Max_cycle;Signal;HPM_P1;HPM_P2
2024/04/04 00:00:47;;;;;;;;;;;18.00;66.30;;;;;;5038719;28;1297;-69
2024/04/04 00:03:12;;;;;;;;;;;18.10;66.40;;;;;;5041671;28;1455;-69
2024/04/04 00:05:38;;;;;;;;;;;18.10;66.40;;;;;;5072167;28;1533;-69
2024/04/04 00:08:03;;;;;;;;;;;18.00;66.30;;;;;;5044281;28;1545;-69
2024/04/04 00:10:29;;;;;;;;;;;18.00;66.30;;;;;;5072234;28;1969;-70
2024/04/04 00:12:54;;;;;;;;;;;18.00;66.40;;;;;;5043396;28;1580;-70
2024/04/04 00:15:20;;;;;;;;;;;18.10;66.40;;;;;;5040570;28;1680;-70
2024/04/04 00:17:46;;;;;;;;;;;18.10;66.50;;;;;;5039419;28;1910;-71
2024/04/04 00:20:15;;;;;;;;;;;18.10;66.40;;;;;;5042353;28;1445;-70
2024/04/04 00:22:41;;;;;;;;;;;18.10;66.50;;;;;;5040343;28;1490;-71
2024/04/04 00:25:07;;;;;;;;;;;18.10;66.50;;;;;;5039654;28;1292;-71
2024/04/04 00:27:32;;;;;;;;;;;18.00;66.40;;;;;;5041852;28;1355;-71
2024/04/04 00:29:57;;;;;;;;;;;18.00;66.40;;;;;;5040463;28;1528;-71
2024/04/04 00:32:23;;;;;;;;;;;18.10;66.50;;;;;;5073314;28;1495;-71
2024/04/04 00:34:48;;;;;;;;;;;18.00;66.40;;;;;;5042409;28;1567;-71
2024/04/04 00:37:14;;;;;;;;;;;18.00;66.50;;;;;;5040895;28;1977;-71
2024/04/04 00:39:39;;;;;;;;;;;18.00;66.40;;;;;;5044688;28;1479;-71
2024/04/04 00:42:05;;;;;;;;;;;18.00;66.40;;;;;;5072522;28;1350;-69
2024/04/04 00:44:30;;;;;;;;;;;18.00;66.50;;;;;;5056385;28;1473;-70
2024/04/04 00:46:56;;;;;;;;;;;18.00;66.50;;;;;;5055319;28;1512;-69
2024/04/04 00:49:21;;;;;;;;;;;18.00;66.50;;;;;;5042669;28;1233;-71
2024/04/04 00:51:47;;;;;;;;;;;18.00;66.50;;;;;;5038311;28;1481;-71
2024/04/04 00:54:13;;;;;;;;;;;18.00;66.50;;;;;;5071446;28;1468;-71
2024/04/04 00:56:38;;;;;;;;;;;18.00;66.50;;;;;;5054442;28;1495;-71
2024/04/04 00:59:06;;;;;;;;;;;18.00;66.50;;;;;;5041218;28;1894;-71
2024/04/04 01:01:31;;;;;;;;;;;18.00;66.50;;;;;;5038628;28;1554;-71
2024/04/04 01:03:57;;;;;;;;;;;18.00;66.50;;;;;;5073354;28;1171;-71
2024/04/04 01:06:28;;;;;;;;;;;18.00;66.50;;;;;;5039710;28;1446;-71
2024/04/04 01:08:54;;;;;;;;;;;18.00;66.50;;;;;;5038496;28;1575;-71
2024/04/04 01:11:19;;;;;;;;;;;18.00;66.50;;;;;;5040994;28;1575;-71
2024/04/04 01:13:45;;;;;;;;;;;18.00;66.60;;;;;;5038303;28;1613;-71
2024/04/04 01:16:10;;;;;;;;;;;18.00;66.60;;;;;;5041633;28;1472;-72
2024/04/04 01:18:36;;;;;;;;;;;18.00;66.60;;;;;;5040846;28;1911;-72
2024/04/04 01:21:01;;;;;;;;;;;18.00;66.60;;;;;;5070921;28;1389;-72
2024/04/04 01:23:26;;;;;;;;;;;18.00;66.60;;;;;;5038186;28;1548;-72
2024/04/04 01:25:52;;;;;;;;;;;18.00;66.60;;;;;;5038970;28;1308;-72
2024/04/04 01:28:19;;;;;;;;;;;18.00;66.60;;;;;;5039479;28;1396;-72
2024/04/04 01:30:45;;;;;;;;;;;18.00;66.60;;;;;;5040277;28;1350;-70
2024/04/04 01:33:10;;;;;;;;;;;18.00;66.60;;;;;;5039946;28;1366;-70
2024/04/04 01:35:36;;;;;;;;;;;18.00;66.60;;;;;;5038803;28;1368;-70
2024/04/04 01:38:01;;;;;;;;;;;18.00;66.60;;;;;;5038697;28;1957;-69
2024/04/04 01:40:26;;;;;;;;;;;18.00;66.60;;;;;;5042965;28;1429;-70
2024/04/04 01:42:52;;;;;;;;;;;18.00;66.60;;;;;;5038888;28;1328;-71
2024/04/04 01:45:17;;;;;;;;;;;18.00;66.70;;;;;;5037697;28;1378;-70
2024/04/04 01:47:43;;;;;;;;;;;18.00;66.70;;;;;;5042121;28;1240;-70
2024/04/04 01:50:08;;;;;;;;;;;18.00;66.70;;;;;;5038691;28;934;-70
2024/04/04 01:52:34;;;;;;;;;;;18.00;66.70;;;;;;5039315;28;938;-71
2024/04/04 01:54:59;;;;;;;;;;;18.00;66.70;;;;;;5038175;28;973;-71
2024/04/04 01:57:25;;;;;;;;;;;18.00;66.70;;;;;;5040448;28;1898;-71
2024/04/04 01:59:51;;;;;;;;;;;18.00;66.70;;;;;;5068294;28;1168;-71
2024/04/04 02:02:16;;;;;;;;;;;18.00;66.70;;;;;;5069499;28;976;-72
2024/04/04 02:04:42;;;;;;;;;;;18.00;66.70;;;;;;5042405;28;1530;-72
2024/04/04 02:07:07;;;;;;;;;;;18.00;66.70;;;;;;5038330;28;1457;-72
2024/04/04 02:09:33;;;;;;;;;;;18.00;66.70;;;;;;5040854;28;1493;-72
2024/04/04 02:11:58;;;;;;;;;;;18.00;66.70;;;;;;5036365;28;1314;-72
2024/04/04 02:14:24;;;;;;;;;;;18.00;66.70;;;;;;5036934;28;1408;-72
2024/04/04 02:16:49;;;;;;;;;;;18.00;66.70;;;;;;5035231;28;1300;-72
2024/04/04 02:19:15;;;;;;;;;;;18.00;66.70;;;;;;5040962;28;1898;-72
2024/04/04 02:21:40;;;;;;;;;;;18.00;66.70;;;;;;5038111;28;966;-72
2024/04/04 02:24:06;;;;;;;;;;;18.00;66.70;;;;;;5039255;28;1286;-74
2024/04/04 02:26:34;;;;;;;;;;;18.00;66.70;;;;;;5038499;28;1542;-75
2024/04/04 02:28:59;;;;;;;;;;;18.00;66.70;;;;;;5043742;28;1276;-73
2024/04/04 02:31:25;;;;;;;;;;;18.00;66.80;;;;;;5039182;28;1279;-72
2024/04/04 02:33:50;;;;;;;;;;;17.90;66.70;;;;;;5073849;28;1298;-71
2024/04/04 02:36:16;;;;;;;;;;;18.00;66.80;;;;;;5045091;28;1340;-71
2024/04/04 02:38:41;;;;;;;;;;;17.90;66.70;;;;;;5070491;28;1972;-71
2024/04/04 02:41:07;;;;;;;;;;;17.90;66.70;;;;;;5035567;28;1604;-71
2024/04/04 02:43:33;;;;;;;;;;;18.00;66.80;;;;;;5045862;28;1187;-70
2024/04/04 02:46:02;;;;;;;;;;;17.90;66.70;;;;;;5037518;28;1478;-73
2024/04/04 02:48:27;;;;;;;;;;;18.00;66.80;;;;;;5037033;28;1282;-73
2024/04/04 02:50:56;;;;;;;;;;;17.90;66.70;;;;;;5037803;28;1466;-73
2024/04/04 02:53:21;;;;;;;;;;;17.90;66.70;;;;;;5068803;28;1643;-73
2024/04/04 02:55:53;;;;;;;;;;;17.90;66.70;;;;;;5036995;28;1292;-73
2024/04/04 02:58:19;;;;;;;;;;;17.90;66.70;;;;;;5072270;28;1914;-72
2024/04/04 03:00:44;;;;;;;;;;;18.00;66.80;;;;;;5042367;28;913;-72
2024/04/04 03:03:09;;;;;;;;;;;17.90;66.70;;;;;;5040318;28;1301;-73
2024/04/04 03:05:39;;;;;;;;;;;18.00;66.80;;;;;;5040614;28;1367;-72
2024/04/04 03:08:05;;;;;;;;;;;18.00;66.80;;;;;;5037999;28;947;-72
2024/04/04 03:10:31;;;;;;;;;;;17.90;66.80;;;;;;5043253;28;1250;-72
2024/04/04 03:12:57;;;;;;;;;;;18.00;66.80;;;;;;5027442;28;1573;-73
2024/04/04 03:15:22;;;;;;;;;;;17.90;67.50;;;;;;5043068;28;1335;-73
2024/04/04 03:17:48;;;;;;;;;;;17.90;66.80;;;;;;5040446;28;1988;-72
2024/04/04 03:20:13;;;;;;;;;;;18.00;66.90;;;;;;5039901;28;955;-73
2024/04/04 03:22:39;;;;;;;;;;;18.00;66.80;;;;;;5037932;28;1323;-72
2024/04/04 03:25:05;;;;;;;;;;;17.90;66.80;;;;;;5046695;28;1229;-72
2024/04/04 03:27:31;;;;;;;;;;;17.90;66.80;;;;;;5046200;28;1270;-72
2024/04/04 03:29:56;;;;;;;;;;;17.90;66.80;;;;;;5047283;28;1352;-72
2024/04/04 03:32:22;;;;;;;;;;;17.90;66.80;;;;;;5042971;28;1180;-72
2024/04/04 03:34:48;;;;;;;;;;;17.90;66.80;;;;;;5029360;28;1246;-72
2024/04/04 03:37:13;;;;;;;;;;;18.00;66.90;;;;;;5043481;28;1903;-72
2024/04/04 03:39:39;;;;;;;;;;;17.90;66.80;;;;;;5038736;28;1512;-72
2024/04/04 03:42:05;;;;;;;;;;;18.00;66.90;;;;;;5030599;28;1285;-73
2024/04/04 03:44:31;;;;;;;;;;;18.00;66.90;;;;;;5045703;28;1305;-72
2024/04/04 03:46:57;;;;;;;;;;;17.90;66.80;;;;;;5074346;28;1456;-72
2024/04/04 03:49:22;;;;;;;;;;;17.90;66.90;;;;;;5032646;28;1256;-73
2024/04/04 03:51:48;;;;;;;;;;;17.90;66.90;;;;;;5043071;28;1363;-73
2024/04/04 03:54:13;;;;;;;;;;;17.90;66.80;;;;;;5040779;28;1192;-73
2024/04/04 03:56:39;;;;;;;;;;;18.00;66.90;;;;;;5041989;28;1296;-72
2024/04/04 03:59:04;;;;;;;;;;;17.90;66.90;;;;;;5039025;28;1973;-72
2024/04/04 04:01:30;;;;;;;;;;;18.00;66.90;;;;;;5075490;28;1074;-73
2024/04/04 04:03:56;;;;;;;;;;;18.00;66.90;;;;;;5074178;28;1449;-72
2024/04/04 04:06:21;;;;;;;;;;;18.00;66.90;;;;;;5043190;28;1411;-73
2024/04/04 04:08:47;;;;;;;;;;;18.00;66.90;;;;;;5056793;28;1208;-73
2024/04/04 04:11:12;;;;;;;;;;;18.00;66.90;;;;;;5047169;28;1339;-73
2024/04/04 04:13:38;;;;;;;;;;;17.90;66.80;;;;;;5035504;28;1216;-73
2024/04/04 04:16:03;;;;;;;;;;;18.00;67.50;;;;;;5045325;28;2053;-73
2024/04/04 04:18:29;;;;;;;;;;;18.00;66.70;;;;;;5039245;28;1906;-72
2024/04/04 04:23:39;;;;;;;;;;;18.10;66.60;;;;;;5046715;28;808;-72
2024/04/04 04:26:04;;;;;;;;;;;18.10;66.40;;;;;;5045677;28;1268;-73
2024/04/04 04:28:30;;;;;;;;;;;18.10;66.40;;;;;;5045965;28;1052;-73
2024/04/04 04:30:55;;;;;;;;;;;18.10;66.20;;;;;;5059526;28;1010;-73
2024/04/04 04:33:21;;;;;;;;;;;18.10;66.20;;;;;;5039572;28;1013;-73
2024/04/04 04:35:46;;;;;;;;;;;18.20;66.10;;;;;;5043806;28;1241;-73
2024/04/04 04:38:11;;;;;;;;;;;18.20;66.00;;;;;;5042471;28;1914;-72
2024/04/04 04:40:39;;;;;;;;;;;18.20;65.90;;;;;;5042645;28;851;-73
2024/04/04 04:43:04;;;;;;;;;;;18.20;65.90;;;;;;5041918;28;1295;-73
2024/04/04 04:45:30;;;;;;;;;;;18.20;65.80;;;;;;5041430;28;1244;-73
2024/04/04 04:47:56;;;;;;;;;;;18.20;65.70;;;;;;5043152;28;1268;-73
2024/04/04 04:50:21;;;;;;;;;;;18.30;65.70;;;;;;5044387;28;1341;-73
2024/04/04 04:52:47;;;;;;;;;;;18.30;65.60;;;;;;5044232;28;878;-72
2024/04/04 04:55:13;;;;;;;;;;;18.30;65.60;;;;;;5040906;28;1182;-73
2024/04/04 04:57:39;;;;;;;;;;;18.30;65.50;;;;;;5033250;28;1918;-73
2024/04/04 05:00:09;;;;;;;;;;;18.30;65.50;;;;;;5061574;28;1292;-72
2024/04/04 05:02:35;;;;;;;;;;;18.30;65.40;;;;;;5040317;28;1425;-73
2024/04/04 05:05:13;;;;;;;;;;;18.30;65.40;;;;;;5042902;28;1223;-72
2024/04/04 05:07:39;;;;;;;;;;;18.40;65.40;;;;;;5041791;28;1309;-72
2024/04/04 05:10:05;;;;;;;;;;;18.40;65.40;;;;;;5046432;28;1056;-72
2024/04/04 05:12:30;;;;;;;;;;;18.40;65.30;;;;;;5040909;28;1076;-72
2024/04/04 05:14:56;;;;;;;;;;;18.40;65.30;;;;;;5044284;28;1393;-73
2024/04/04 05:17:21;;;;;;;;;;;18.40;65.20;;;;;;5038584;28;1928;-72
2024/04/04 05:19:47;;;;;;;;;;;18.40;65.20;;;;;;5046923;28;1365;-73
2024/04/04 05:22:12;;;;;;;;;;;18.40;65.20;;;;;;5052075;28;1223;-73
2024/04/04 05:24:37;;;;;;;;;;;18.40;65.10;;;;;;5038098;28;1295;-73
2024/04/04 05:27:03;;;;;;;;;;;18.40;65.10;;;;;;5039235;28;1461;-73
2024/04/04 05:29:28;;;;;;;;;;;18.40;65.10;;;;;;5041097;28;1396;-73
2024/04/04 05:31:54;;;;;;;;;;;18.40;65.10;;;;;;5038464;28;998;-72
2024/04/04 05:34:21;;;;;;;;;;;18.40;65.00;;;;;;5035930;28;1733;-73
2024/04/04 05:36:46;;;;;;;;;;;18.50;65.10;;;;;;5036337;28;1331;-73
2024/04/04 05:39:12;;;;;;;;;;;18.50;65.10;;;;;;5039966;28;1969;-73
2024/04/04 05:41:37;;;;;;;;;;;18.50;65.00;;;;;;5040367;28;1582;-73
2024/04/04 05:44:03;;;;;;;;;;;18.50;65.00;;;;;;5037386;28;1264;-73
2024/04/04 05:46:30;;;;;;;;;;;18.50;65.00;;;;;;5039899;28;1469;-73
2024/04/04 05:48:56;;;;;;;;;;;18.50;65.00;;;;;;5037790;28;1244;-72
2024/04/04 05:51:23;;;;;;;;;;;18.50;65.00;;;;;;5039432;28;1403;-72
2024/04/04 05:53:48;;;;;;;;;;;18.50;65.00;;;;;;5041871;28;1299;-73
2024/04/04 05:56:14;;;;;;;;;;;18.50;65.00;;;;;;5051713;28;1285;-73
2024/04/04 05:58:39;;;;;;;;;;;18.50;65.00;;;;;;5037818;28;1906;-72
2024/04/04 06:01:05;;;;;;;;;;;18.50;65.00;;;;;;5039104;28;1991;-71
2024/04/04 06:03:31;;;;;;;;;;;18.50;65.00;;;;;;5072310;28;1533;-72
2024/04/04 06:05:56;;;;;;;;;;;18.50;65.00;;;;;;5039211;28;1284;-72
2024/04/04 06:08:24;;;;;;;;;;;18.50;65.00;;;;;;5044927;28;1526;-71
2024/04/04 06:10:50;;;;;;;;;;;18.50;65.00;;;;;;5040993;28;1352;-74
2024/04/04 06:13:15;;;;;;;;;;;18.50;65.00;;;;;;5070157;28;1339;-71
2024/04/04 06:15:45;;;;;;;;;;;18.50;65.00;;;;;;5038398;28;1385;-71
2024/04/04 06:18:11;;;;;;;;;;;18.50;65.10;;;;;;5041110;28;1902;-70
2024/04/04 06:20:36;;;;;;;;;;;18.50;65.10;;;;;;5041963;28;1447;-71
2024/04/04 06:23:01;;;;;;;;;;;18.40;65.00;;;;;;5037129;28;1644;-73
2024/04/04 06:25:27;;;;;;;;;;;18.40;65.00;;;;;;5037970;28;1529;-73
2024/04/04 06:27:52;;;;;;;;;;;18.50;65.10;;;;;;5039206;28;1481;-73
2024/04/04 06:30:19;;;;;;;;;;;18.40;65.10;;;;;;5072532;28;1395;-71
2024/04/04 06:32:45;;;;;;;;;;;18.40;65.10;;;;;;5037805;28;1142;-71
2024/04/04 06:35:10;;;;;;;;;;;18.40;65.10;;;;;;5036900;28;1512;-71
2024/04/04 06:37:36;;;;;;;;;;;18.40;65.20;;;;;;5036370;28;1902;-71
2024/04/04 06:40:01;;;;;;;;;;;18.40;65.20;;;;;;5046458;28;1347;-71
2024/04/04 06:42:26;;;;;;;;;;;18.40;65.20;;;;;;5037720;28;1805;-71
2024/04/04 06:44:52;;;;;;;;;;;18.40;65.20;;;;;;5037519;28;1504;-71
2024/04/04 06:47:17;;;;;;;;;;;18.40;65.30;;;;;;5040099;28;1526;-71
2024/04/04 06:49:43;;;;;;;;;;;18.40;65.30;;;;;;5038475;28;1498;-71
2024/04/04 06:52:08;;;;;;;;;;;18.40;65.30;;;;;;5051354;28;1548;-70
2024/04/04 06:54:34;;;;;;;;;;;18.40;65.30;;;;;;5039932;28;1789;-70
2024/04/04 06:56:59;;;;;;;;;;;18.40;65.40;;;;;;5040634;28;1588;-70
2024/04/04 06:59:25;;;;;;;;;;;18.40;65.40;;;;;;5043214;28;1906;-70
2024/04/04 07:01:50;;;;;;;;;;;18.30;65.30;;;;;;5042595;28;1148;-71
2024/04/04 07:04:15;;;;;;;;;;;18.40;65.40;;;;;;5043380;28;1119;-71
2024/04/04 07:06:41;;;;;;;;;;;18.40;65.50;;;;;;5042538;28;1264;-71
2024/04/04 07:09:06;;;;;;;;;;;18.40;65.50;;;;;;5042583;28;1311;-71
2024/04/04 07:11:32;;;;;;;;;;;18.40;65.50;;;;;;5042167;28;1036;-71
2024/04/04 07:13:57;;;;;;;;;;;18.30;65.50;;;;;;5043903;28;1187;-71
2024/04/04 07:16:23;;;;;;;;;;;18.30;65.50;;;;;;5042144;28;1227;-71
2024/04/04 07:18:48;;;;;;;;;;;18.30;65.50;;;;;;5073927;28;1909;-71
2024/04/04 07:21:14;;;;;;;;;;;18.30;65.50;;;;;;5040071;28;1214;-71
2024/04/04 07:23:39;;;;;;;;;;;18.30;65.50;;;;;;5043847;28;1344;-71
2024/04/04 07:26:05;;;;;;;;;;;18.30;65.60;;;;;;5042480;28;1395;-71
2024/04/04 07:28:30;;;;;;;;;;;18.30;65.60;;;;;;5048984;28;1616;-71
2024/04/04 07:30:56;;;;;;;;;;;18.30;65.60;;;;;;5042301;28;1631;-71
2024/04/04 07:33:21;;;;;;;;;;;18.30;65.60;;;;;;5040207;28;1322;-71
2024/04/04 07:35:47;;;;;;;;;;;18.30;65.60;;;;;;5042288;28;1330;-71
2024/04/04 07:38:13;;;;;;;;;;;18.30;65.70;;;;;;5042302;28;1994;-71
2024/04/04 07:40:39;;;;;;;;;;;18.30;65.70;;;;;;5042290;28;1357;-71
2024/04/04 07:43:05;;;;;;;;;;;18.30;65.70;;;;;;5040780;28;1255;-72
2024/04/04 07:45:30;;;;;;;;;;;18.30;65.80;;;;;;5039274;28;1355;-72
2024/04/04 07:47:56;;;;;;;;;;;18.30;65.80;;;;;;5040113;28;1601;-72
2024/04/04 07:50:23;;;;;;;;;;;18.30;65.80;;;;;;5044486;28;1325;-72
2024/04/04 07:52:51;;;;;;;;;;;18.20;65.80;;;;;;5048230;28;1632;-72
2024/04/04 07:55:17;;;;;;;;;;;18.20;65.80;;;;;;5073203;28;1611;-72
2024/04/04 07:57:42;;;;;;;;;;;18.20;65.80;;;;;;5039067;28;1959;-72
2024/04/04 08:00:09;;;;;;;;;;;18.20;65.90;;;;;;5041399;28;965;-72
2024/04/04 08:02:35;;;;;;;;;;;18.20;65.90;;;;;;5041286;28;2115;-72
2024/04/04 08:05:01;;;;;;;;;;;18.20;65.90;;;;;;5049914;28;1029;-72
2024/04/04 08:07:33;;;;;;;;;;;18.20;65.90;;;;;;5042165;28;1507;-72
2024/04/04 08:10:00;;;;;;;;;;;18.20;65.90;;;;;;5038632;28;1280;-72
2024/04/04 08:12:27;;;;;;;;;;;18.20;65.90;;;;;;5049696;28;1301;-72
2024/04/04 08:14:52;;;;;;;;;;;18.20;66.00;;;;;;5043285;28;1223;-72
2024/04/04 08:17:18;;;;;;;;;;;18.20;65.90;;;;;;5042321;28;1980;-72
2024/04/04 08:19:43;;;;;;;;;;;18.20;66.00;;;;;;5040217;28;1155;-72
2024/04/04 08:22:11;;;;;;;;;;;18.20;66.00;;;;;;5041654;28;1663;-72
2024/04/04 08:24:36;;;;;;;;;;;18.20;66.10;;;;;;5039642;28;1718;-72
2024/04/04 08:27:02;;;;;;;;;;;18.20;66.00;;;;;;5039946;28;1392;-72
2024/04/04 08:29:27;;;;;;;;;;;18.20;66.00;;;;;;5038993;28;1398;-72
2024/04/04 08:31:52;;;;;;;;;;;18.20;66.00;;;;;;5040455;28;1562;-72
2024/04/04 08:34:19;;;;;;;;;;;18.20;66.10;;;;;;5037573;28;1541;-72
2024/04/04 08:36:44;;;;;;;;;;;18.20;66.90;;;;;;5039997;28;1304;-72
2024/04/04 08:39:11;;;;;;;;;;;18.20;66.20;;;;;;5039358;28;1977;-72
2024/04/04 08:41:36;;;;;;;;;;;18.20;66.20;;;;;;5041523;28;1530;-72
2024/04/04 08:44:05;;;;;;;;;;;18.20;66.20;;;;;;5047978;28;1462;-72
2024/04/04 08:46:32;;;;;;;;;;;18.20;66.20;;;;;;5072382;28;1390;-72
2024/04/04 08:49:01;;;;;;;;;;;18.20;66.20;;;;;;5070889;28;1237;-72
2024/04/04 08:51:27;;;;;;;;;;;18.20;66.20;;;;;;5037574;28;1636;-72
2024/04/04 08:53:52;;;;;;;;;;;18.20;66.20;;;;;;5041001;28;1225;-72
2024/04/04 08:56:18;;;;;;;;;;;18.20;66.20;;;;;;5041729;28;1528;-72
2024/04/04 08:58:43;;;;;;;;;;;18.20;66.20;;;;;;5043166;28;1898;-72
2024/04/04 09:01:09;;;;;;;;;;;18.20;66.20;;;;;;5040157;28;966;-72
2024/04/04 09:03:37;;;;;;;;;;;18.20;66.20;;;;;;5059746;28;1681;-72
2024/04/04 09:06:02;;;;;;;;;;;18.20;66.20;;;;;;5040775;28;1589;-72
2024/04/04 09:08:28;;;;;;;;;;;18.20;66.20;;;;;;5040103;28;1251;-72
2024/04/04 09:11:00;;;;;;;;;;;18.20;66.30;;;;;;5036217;28;1682;-72
2024/04/04 09:13:26;;;;;;;;;;;18.20;66.20;;;;;;5039324;28;1614;-72
2024/04/04 09:15:58;;;;;;;;;;;18.20;66.30;;;;;;5039285;28;1304;-72
2024/04/04 09:18:23;;;;;;;;;;;18.20;66.30;;;;;;5039189;28;1902;-72
2024/04/04 09:20:49;;;;;;;;;;;18.20;66.40;;;;;;5038723;28;1462;-71
2024/04/04 09:23:14;;;;;;;;;;;18.20;66.50;;;;;;5035570;28;1364;-71
2024/04/04 09:25:40;;;;;;;;;;;18.20;66.40;;;;;;5038345;28;1303;-72
2024/04/04 09:28:08;;;;;;;;;;;18.10;66.40;;;;;;5039445;28;1308;-71
2024/04/04 09:30:34;;;;;;;;;;;18.20;66.40;;;;;;5068183;28;1173;-71
2024/04/04 09:33:00;;;;;;;;;;;18.10;66.30;;;;;;5059255;28;1639;-71
2024/04/04 09:35:25;;;;;;;;;;;18.10;66.30;;;;;;5047318;28;1530;-72
2024/04/04 09:37:51;;;;;;;;;;;18.10;66.40;;;;;;5038531;28;1906;-71
2024/04/04 09:40:17;;;;;;;;;;;18.10;66.30;;;;;;5071365;28;1429;-71
2024/04/04 09:42:44;;;;;;;;;;;18.10;66.40;;;;;;5037845;28;1398;-71
2024/04/04 09:45:09;;;;;;;;;;;18.10;66.40;;;;;;5036751;28;1185;-71
2024/04/04 09:47:37;;;;;;;;;;;18.10;66.40;;;;;;5037365;28;1402;-71
2024/04/04 09:50:03;;;;;;;;;;;18.10;66.40;;;;;;5069735;28;1278;-71
2024/04/04 09:52:29;;;;;;;;;;;18.10;66.40;;;;;;5047206;28;1285;-71
2024/04/04 09:54:55;;;;;;;;;;;18.10;66.40;;;;;;5037373;28;1446;-71
2024/04/04 09:57:20;;;;;;;;;;;18.10;66.40;;;;;;5038146;28;1910;-71
2024/04/04 09:59:47;;;;;;;;;;;18.10;66.40;;;;;;5051736;28;1943;-71
2024/04/04 10:02:13;;;;;;;;;;;18.10;66.40;;;;;;5038207;28;1905;-71
2024/04/04 10:04:38;;;;;;;;;;;18.10;66.50;;;;;;5036883;28;1404;-71
2024/04/04 10:07:04;;;;;;;;;;;18.10;66.50;;;;;;5053530;28;1308;-71
2024/04/04 10:09:39;;;;;;;;;;;18.10;66.50;;;;;;5040313;28;911;-71
2024/04/04 10:12:09;;;;;;;;;;;18.10;66.50;;;;;;5035284;28;1523;-71
2024/04/04 10:14:34;;;;;;;;;;;18.10;66.50;;;;;;5038303;28;1380;-71
2024/04/04 10:17:02;;;;;;;;;;;18.10;66.50;;;;;;5051333;28;1311;-72
2024/04/04 10:19:32;;;;;;;;;;;18.10;66.50;;;;;;5070268;28;1975;-72
2024/04/04 10:21:57;;;;;;;;;;;18.10;66.50;;;;;;5068573;28;1336;-72
2024/04/04 10:24:26;;;;;;;;;;;18.10;67.40;;;;;;5038600;28;1598;-72
2024/04/04 10:26:57;;;;;;;;;;;18.10;67.20;;;;;;5039320;28;1268;-72
2024/04/04 10:29:22;;;;;;;;;;;18.10;67.10;;;;;;5069299;28;1464;-72
2024/04/04 10:31:48;;;;;;;;;;;18.10;67.00;;;;;;5041526;28;1329;-71
2024/04/04 10:34:14;;;;;;;;;;;18.10;67.00;;;;;;5038923;28;1309;-71
2024/04/04 10:36:43;;;;;;;;;;;18.10;67.00;;;;;;5039675;28;1669;-71
2024/04/04 10:39:09;;;;;;;;;;;18.10;66.90;;;;;;5039390;28;1906;-72
2024/04/04 10:41:37;;;;;;;;;;;18.10;66.90;;;;;;5054779;28;1384;-71
2024/04/04 10:44:07;;;;;;;;;;;18.10;66.90;;;;;;5041903;28;1022;-71
2024/04/04 10:46:33;;;;;;;;;;;18.10;66.80;;;;;;5040271;28;1471;-72
2024/04/04 10:48:58;;;;;;;;;;;18.10;66.80;;;;;;5036269;28;1470;-71
2024/04/04 10:51:24;;;;;;;;;;;18.10;66.80;;;;;;5042953;28;1688;-72
2024/04/04 10:53:51;;;;;;;;;;;18.10;66.90;;;;;;5038412;28;1423;-71
2024/04/04 10:56:17;;;;;;;;;;;18.10;67.40;;;;;;5029715;28;1462;-72
2024/04/04 10:58:42;;;;;;;;;;;18.10;67.40;;;;;;5038536;28;1959;-71
2024/04/04 11:01:07;;;;;;;;;;;18.10;67.50;;;;;;5038549;28;1422;-71
2024/04/04 11:03:33;;;;;;;;;;;18.10;67.40;;;;;;5039353;28;867;-70
2024/04/04 11:05:58;;;;;;;;;;;18.10;67.40;;;;;;5036908;28;1398;-70
2024/04/04 11:08:24;;;;;;;;;;;18.10;67.30;;;;;;5042051;28;1324;-70
2024/04/04 11:10:50;;;;;;;;;;;18.10;67.30;;;;;;5040657;28;1403;-70
2024/04/04 11:13:15;;;;;;;;;;;18.10;67.30;;;;;;5035156;28;1415;-70
2024/04/04 11:15:40;;;;;;;;;;;18.10;67.20;;;;;;5036685;28;1388;-71
2024/04/04 11:18:09;;;;;;;;;;;18.10;67.20;;;;;;5035782;28;1906;-71
2024/04/04 11:20:34;;;;;;;;;;;18.10;68.00;;;;;;5062904;28;1262;-71
2024/04/04 11:23:00;;;;;;;;;;;18.10;67.20;;;;;;5037145;28;1299;-71
2024/04/04 11:25:25;;;;;;;;;;;18.10;67.20;;;;;;5040308;28;1432;-71
2024/04/04 11:27:51;;;;;;;;;;;18.10;67.20;;;;;;5045711;28;1342;-70
2024/04/04 11:30:16;;;;;;;;;;;18.10;67.20;;;;;;5037328;28;1447;-71
2024/04/04 11:32:42;;;;;;;;;;;18.10;67.20;;;;;;5035639;28;1634;-71
2024/04/04 11:35:08;;;;;;;;;;;18.10;67.20;;;;;;5039254;28;1639;-71
2024/04/04 11:37:34;;;;;;;;;;;18.10;67.10;;;;;;5035125;28;1914;-70
2024/04/04 11:39:59;;;;;;;;;;;18.10;67.20;;;;;;5070000;28;1279;-70
2024/04/04 11:42:26;;;;;;;;;;;18.10;67.20;;;;;;5068158;28;1458;-70
2024/04/04 11:44:52;;;;;;;;;;;18.10;67.10;;;;;;5040771;28;968;-70
2024/04/04 11:47:17;;;;;;;;;;;18.00;67.10;;;;;;5071811;28;1327;-71
2024/04/04 11:49:43;;;;;;;;;;;18.10;67.10;;;;;;5042510;28;1405;-71
2024/04/04 11:52:09;;;;;;;;;;;18.10;67.10;;;;;;5040820;28;1249;-71
2024/04/04 11:54:34;;;;;;;;;;;18.00;67.00;;;;;;5047392;28;1207;-70
2024/04/04 11:57:00;;;;;;;;;;;18.00;67.10;;;;;;5042802;28;1284;-71
2024/04/04 11:59:26;;;;;;;;;;;18.10;67.10;;;;;;5040728;28;1984;-70
2024/04/04 12:01:54;;;;;;;;;;;18.10;67.10;;;;;;5071938;28;886;-70
2024/04/04 12:04:21;;;;;;;;;;;18.10;67.00;;;;;;5041026;28;1571;-70
2024/04/04 12:06:46;;;;;;;;;;;18.10;67.00;;;;;;5040578;28;1336;-71
2024/04/04 12:09:13;;;;;;;;;;;18.10;66.90;;;;;;5038974;28;1426;-71
2024/04/04 12:11:40;;;;;;;;;;;18.10;66.80;;;;;;5050287;28;1727;-71
2024/04/04 12:14:06;;;;;;;;;;;18.10;66.70;;;;;;5071665;28;1252;-71
2024/04/04 12:16:32;;;;;;;;;;;18.10;66.70;;;;;;5041914;28;1488;-71
2024/04/04 12:21:42;;;;;;;;;;;18.20;66.50;;;;;;5041005;28;1179;-71
2024/04/04 12:24:08;;;;;;;;;;;18.20;66.40;;;;;;5041187;28;1331;-71
2024/04/04 12:26:33;;;;;;;;;;;18.20;66.30;;;;;;5050802;28;1356;-70
2024/04/04 12:28:58;;;;;;;;;;;18.30;66.30;;;;;;5042740;28;1303;-70
2024/04/04 12:31:24;;;;;;;;;;;18.30;66.20;;;;;;5058715;28;1433;-70
2024/04/04 12:33:49;;;;;;;;;;;18.30;66.10;;;;;;5041996;28;1459;-70
2024/04/04 12:36:15;;;;;;;;;;;18.30;66.00;;;;;;5038256;28;1440;-71
2024/04/04 12:38:40;;;;;;;;;;;18.40;66.00;;;;;;5041727;28;1910;-70
2024/04/04 12:41:06;;;;;;;;;;;18.40;65.90;;;;;;5036412;28;1325;-70
2024/04/04 12:43:31;;;;;;;;;;;18.40;65.80;;;;;;5039846;28;1574;-70
2024/04/04 12:46:01;;;;;;;;;;;18.40;65.70;;;;;;5071584;28;1323;-69
2024/04/04 12:48:27;;;;;;;;;;;18.40;65.70;;;;;;5042049;28;1154;-70
2024/04/04 12:50:52;;;;;;;;;;;18.40;65.60;;;;;;5036925;28;951;-69
2024/04/04 12:53:17;;;;;;;;;;;18.40;65.50;;;;;;5071749;28;1375;-70
2024/04/04 12:55:43;;;;;;;;;;;18.40;65.50;;;;;;5040129;28;1370;-70
2024/04/04 12:58:08;;;;;;;;;;;18.50;65.50;;;;;;5030871;28;2028;-70
2024/04/04 13:00:34;;;;;;;;;;;18.50;65.40;;;;;;5041962;28;1314;-70
2024/04/04 13:02:59;;;;;;;;;;;18.50;65.40;;;;;;5038973;28;915;-70
2024/04/04 13:05:25;;;;;;;;;;;18.50;65.40;;;;;;5038280;28;1279;-70
2024/04/04 13:07:52;;;;;;;;;;;18.50;65.40;;;;;;5041265;28;1266;-69
2024/04/04 13:10:18;;;;;;;;;;;18.50;65.30;;;;;;5039589;28;1394;-70
2024/04/04 13:12:44;;;;;;;;;;;18.50;65.30;;;;;;5043401;28;1439;-69
2024/04/04 13:15:10;;;;;;;;;;;18.50;65.30;;;;;;5043764;28;1359;-69
2024/04/04 13:17:36;;;;;;;;;;;18.50;65.30;;;;;;5037949;28;1976;-69
2024/04/04 13:20:04;;;;;;;;;;;18.50;65.30;;;;;;5042193;28;1235;-70
2024/04/04 13:22:30;;;;;;;;;;;18.50;65.30;;;;;;5069611;28;1280;-70
2024/04/04 13:24:55;;;;;;;;;;;18.50;65.30;;;;;;5026757;28;1307;-69
2024/04/04 13:27:21;;;;;;;;;;;18.50;65.30;;;;;;5038685;28;1491;-69
2024/04/04 13:29:46;;;;;;;;;;;18.50;65.30;;;;;;5040347;28;1476;-69
2024/04/04 13:32:12;;;;;;;;;;;18.50;65.30;;;;;;5041462;28;1233;-70
2024/04/04 13:34:37;;;;;;;;;;;18.50;65.30;;;;;;5040047;28;1348;-69
2024/04/04 13:37:03;;;;;;;;;;;18.50;65.30;;;;;;5039992;28;1488;-69
2024/04/04 13:39:28;;;;;;;;;;;18.50;65.40;;;;;;5037884;28;1954;-70
2024/04/04 13:41:54;;;;;;;;;;;18.50;65.40;;;;;;5038703;28;1366;-71
2024/04/04 13:44:20;;;;;;;;;;;18.50;65.40;;;;;;5046702;28;1496;-70
2024/04/04 13:46:45;;;;;;;;;;;18.50;65.40;;;;;;5039003;28;1483;-69
2024/04/04 13:49:11;;;;;;;;;;;18.50;65.50;;;;;;5039617;28;1475;-70
2024/04/04 13:51:37;;;;;;;;;;;18.50;65.50;;;;;;5037583;28;1748;-70
2024/04/04 13:54:05;;;;;;;;;;;18.50;65.50;;;;;;5072118;28;1826;-69
2024/04/04 13:56:31;;;;;;;;;;;18.40;65.50;;;;;;5037581;28;1543;-69
2024/04/04 13:58:56;;;;;;;;;;;18.40;65.50;;;;;;5041368;28;1898;-70
2024/04/04 14:01:22;;;;;;;;;;;18.40;65.50;;;;;;5037604;28;1463;-68
2024/04/04 14:03:47;;;;;;;;;;;18.40;65.50;;;;;;5038550;28;1280;-68
2024/04/04 14:06:13;;;;;;;;;;;18.40;65.50;;;;;;5039188;28;1402;-67
2024/04/04 14:08:38;;;;;;;;;;;18.40;65.50;;;;;;5038769;28;1462;-68
2024/04/04 14:11:04;;;;;;;;;;;18.40;65.50;;;;;;5037736;28;1220;-68
2024/04/04 14:13:29;;;;;;;;;;;18.40;65.50;;;;;;5030283;28;1545;-69
2024/04/04 14:15:54;;;;;;;;;;;18.40;65.50;;;;;;5050921;28;1396;-69
2024/04/04 14:18:20;;;;;;;;;;;18.40;65.60;;;;;;5047166;28;1979;-69
2024/04/04 14:20:45;;;;;;;;;;;18.40;65.50;;;;;;5041208;28;1423;-69
2024/04/04 14:23:12;;;;;;;;;;;18.40;65.50;;;;;;5040368;28;1455;-70
2024/04/04 14:25:37;;;;;;;;;;;18.40;65.50;;;;;;5041007;28;1482;-71
2024/04/04 14:28:03;;;;;;;;;;;18.40;65.50;;;;;;5037396;28;1272;-70